createdAt,value
2019-05-12T00:01:22.313Z,100601.47
2019-05-12T00:03:52.990Z,100603.45
2019-05-12T00:06:23.732Z,100599.06
2019-05-12T00:08:54.455Z,100597.38
2019-05-12T00:11:25.282Z,100599.98
2019-05-12T00:13:58.413Z,100597.98
2019-05-12T00:16:28.614Z,100590.61
2019-05-12T00:18:59.537Z,100597.89
2019-05-12T00:21:30.396Z,100596.36
2019-05-12T00:24:13.600Z,100605.01
2019-05-12T00:26:44.611Z,100599.06
2019-05-12T00:29:15.427Z,100607.06
2019-05-12T00:31:47.804Z,100607.73
2019-05-12T00:34:18.872Z,100606.08
2019-05-12T00:36:49.502Z,100600.27
2019-05-12T00:39:40.230Z,100591.34
2019-05-12T00:42:10.860Z,100591.45
2019-05-12T00:44:42.222Z,100594.92
2019-05-12T00:47:12.892Z,100596.45
2019-05-12T00:49:43.486Z,100589.52
2019-05-12T00:52:18.654Z,100595.36
2019-05-12T00:54:49.718Z,100596.17
2019-05-12T00:57:20.794Z,100602.87
2019-05-12T00:59:52.146Z,100599.22
2019-05-12T01:02:22.773Z,100602.47
2019-05-12T01:04:54.025Z,100603.29
2019-05-12T01:07:27.625Z,100597.86
2019-05-12T01:09:58.070Z,100600.75
2019-05-12T01:12:30.106Z,100597.28
2019-05-12T01:15:02.067Z,100599.37
2019-05-12T01:17:32.595Z,100594.93
2019-05-12T01:20:05.319Z,100598.11
2019-05-12T01:22:38.271Z,100600.91
2019-05-12T01:25:08.889Z,100599.81
2019-05-12T01:27:40.174Z,100601.47
2019-05-12T01:30:11.267Z,100596.98
2019-05-12T01:32:42.034Z,100596.98
2019-05-12T01:35:12.868Z,100598.86
2019-05-12T01:37:43.519Z,100599.59
2019-05-12T01:40:14.254Z,100603.63
2019-05-12T01:42:45.258Z,100598.86
2019-05-12T01:45:20.415Z,100597.83
2019-05-12T01:47:51.212Z,100594.01
2019-05-12T01:50:22.105Z,100598.75
2019-05-12T01:52:52.728Z,100595.23
2019-05-12T01:55:23.453Z,100595.41
2019-05-12T01:57:54.112Z,100591.05
2019-05-12T02:00:27.909Z,100596.23
2019-05-12T02:02:58.732Z,100587.37
2019-05-12T02:05:29.501Z,100587.77
2019-05-12T02:08:01.590Z,100587.09
2019-05-12T02:10:32.194Z,100592.11
2019-05-12T02:13:04.912Z,100594.50
2019-05-12T02:15:38.254Z,100595.57
2019-05-12T02:18:09.427Z,100593.17
2019-05-12T02:20:40.176Z,100595.30
2019-05-12T02:23:11.102Z,100592.16
2019-05-12T02:25:42.355Z,100594.65
2019-05-12T02:28:12.991Z,100601.60
2019-05-12T02:30:43.583Z,100597.27
2019-05-12T02:33:16.064Z,100600.56
2019-05-12T02:35:46.830Z,100603.08
2019-05-12T02:38:19.127Z,100604.17
2019-05-12T02:40:49.819Z,100613.38
2019-05-12T02:43:20.622Z,100613.14
2019-05-12T02:45:51.268Z,100614.66
2019-05-12T02:48:24.617Z,100619.11
2019-05-12T02:50:54.598Z,100620.17
2019-05-12T02:53:25.636Z,100620.89
2019-05-12T02:55:57.595Z,100621.67
2019-05-12T02:58:29.990Z,100624.67
2019-05-12T03:01:01.093Z,100629.34
2019-05-12T03:03:35.429Z,100628.91
2019-05-12T03:06:06.543Z,100628.70
2019-05-12T03:08:38.480Z,100634.63
2019-05-12T03:11:09.619Z,100636.84
2019-05-12T03:13:40.391Z,100640.39
2019-05-12T03:16:11.164Z,100635.70
2019-05-12T03:18:44.719Z,100635.65
2019-05-12T03:21:15.254Z,100635.59
2019-05-12T03:23:47.594Z,100635.64
2019-05-12T03:26:18.371Z,100632.34
2019-05-12T03:28:49.003Z,100637.84
2019-05-12T03:31:27.895Z,100637.51
2019-05-12T03:33:59.011Z,100639.67
2019-05-12T03:36:32.522Z,100646.54
2019-05-12T03:38:57.796Z,100653.32
2019-05-12T03:41:28.483Z,100650.94
2019-05-12T03:43:59.213Z,100652.66
2019-05-12T03:46:29.957Z,100649.99
2019-05-12T03:49:00.989Z,100663.23
2019-05-12T03:51:34.748Z,100663.84
2019-05-12T03:54:05.050Z,100662.95
2019-05-12T03:56:36.183Z,100665.91
2019-05-12T03:59:07.510Z,100668.36
2019-05-12T04:01:38.239Z,100664.39
2019-05-12T04:04:09.099Z,100670.03
2019-05-12T04:06:39.757Z,100674.02
2019-05-12T04:09:11.138Z,100677.83
2019-05-12T04:11:44.406Z,100672.34
2019-05-12T04:14:15.784Z,100673.72
2019-05-12T04:16:55.205Z,100678.78
2019-05-12T04:19:25.933Z,100687.66
2019-05-12T04:21:56.234Z,100690.67
2019-05-12T04:24:26.536Z,100692.41
2019-05-12T04:26:56.888Z,100695.02
2019-05-12T04:29:27.487Z,100688.11
2019-05-12T04:31:57.834Z,100700.21
2019-05-12T04:34:28.227Z,100695.57
2019-05-12T04:36:58.533Z,100702.02
2019-05-12T04:39:28.939Z,100711.05
2019-05-12T04:41:59.325Z,100711.59
2019-05-12T04:44:29.720Z,100717.66
2019-05-12T04:46:59.989Z,100712.56
2019-05-12T04:49:30.515Z,100718.19
2019-05-12T04:52:01.018Z,100716.30
2019-05-12T04:54:35.313Z,100717.00
2019-05-12T04:57:04.908Z,100719.83
2019-05-12T04:59:35.493Z,100716.36
2019-05-12T05:02:06.215Z,100718.66
2019-05-12T05:04:36.933Z,100721.91
2019-05-12T05:07:07.632Z,100718.85
2019-05-12T05:09:39.893Z,100709.31
2019-05-12T05:12:13.741Z,100720.12
2019-05-12T05:14:44.680Z,100716.86
2019-05-12T05:17:15.290Z,100713.77
2019-05-12T05:19:47.100Z,100717.09
2019-05-12T05:22:17.549Z,100721.82
2019-05-12T05:24:49.365Z,100718.02
2019-05-12T05:27:20.078Z,100725.55
2019-05-12T05:29:50.691Z,100725.55
2019-05-12T05:32:23.285Z,100726.95
2019-05-12T05:34:57.798Z,100726.44
2019-05-12T05:37:30.811Z,100721.84
2019-05-12T05:39:59.931Z,100724.26
2019-05-12T05:42:32.803Z,100727.97
2019-05-12T05:45:04.889Z,100724.05
2019-05-12T05:47:35.950Z,100732.08
2019-05-12T05:50:08.638Z,100725.91
2019-05-12T05:52:39.416Z,100737.39
2019-05-12T05:55:19.913Z,100736.82
2019-05-12T05:57:44.556Z,100734.92
2019-05-12T06:00:20.432Z,100735.76
2019-05-12T06:02:48.016Z,100730.86
2019-05-12T06:05:20.048Z,100738.47
2019-05-12T06:07:53.436Z,100746.11
2019-05-12T06:10:34.824Z,100747.72
2019-05-12T06:12:56.057Z,100742.83
2019-05-12T06:15:29.720Z,100755.28
2019-05-12T06:17:58.484Z,100748.70
2019-05-12T06:20:28.834Z,100752.60
2019-05-12T06:22:59.148Z,100753.52
2019-05-12T06:25:41.103Z,100757.39
2019-05-12T06:28:04.557Z,100758.29
2019-05-12T06:30:44.600Z,100765.31
2019-05-12T06:33:09.016Z,100762.37
2019-05-12T06:35:42.213Z,100770.05
2019-05-12T06:38:13.927Z,100769.47
2019-05-12T06:40:45.577Z,100772.95
2019-05-12T06:43:16.386Z,100776.63
2019-05-12T06:45:47.177Z,100772.61
2019-05-12T06:48:19.381Z,100779.69
2019-05-12T06:50:50.440Z,100779.69
2019-05-12T06:53:29.050Z,100774.97
2019-05-12T06:55:54.070Z,100773.43
2019-05-12T06:58:27.596Z,100774.44
2019-05-12T07:01:04.413Z,100765.98
2019-05-12T07:03:34.913Z,100762.52
2019-05-12T07:06:04.149Z,100759.98
2019-05-12T07:08:38.208Z,100766.03
2019-05-12T07:11:07.190Z,100763.72
2019-05-12T07:13:38.195Z,100764.67
2019-05-12T07:16:22.122Z,100762.97
2019-05-12T07:18:49.415Z,100762.26
2019-05-12T07:21:23.712Z,100763.78
2019-05-12T07:23:53.481Z,100759.20
2019-05-12T07:26:24.454Z,100767.27
2019-05-12T07:28:55.143Z,100769.84
2019-05-12T07:31:25.645Z,100767.80
2019-05-12T07:33:56.460Z,100770.30
2019-05-12T07:36:28.006Z,100770.30
2019-05-12T07:39:04.025Z,100773.17
2019-05-12T07:41:34.677Z,100769.05
2019-05-12T07:44:05.164Z,100769.89
2019-05-12T07:46:39.767Z,100774.84
2019-05-12T07:49:08.352Z,100777.57
2019-05-12T07:51:44.543Z,100780.89
2019-05-12T07:54:15.888Z,100776.33
2019-05-12T07:56:46.733Z,100774.62
2019-05-12T07:59:17.456Z,100780.64
2019-05-12T08:01:51.828Z,100781.14
2019-05-12T08:04:20.595Z,100780.59
2019-05-12T08:06:53.671Z,100788.25
2019-05-12T08:09:32.137Z,100788.82
2019-05-12T08:11:56.280Z,100792.55
2019-05-12T08:14:29.483Z,100787.65
2019-05-12T08:17:10.491Z,100784.38
2019-05-12T08:19:35.232Z,100786.06
2019-05-12T08:22:05.720Z,100782.35
2019-05-12T08:24:42.816Z,100781.16
2019-05-12T08:27:08.792Z,100783.49
2019-05-12T08:29:39.847Z,100782.77
2019-05-12T08:32:15.961Z,100786.86
2019-05-12T08:34:44.661Z,100788.47
2019-05-12T08:37:15.392Z,100796.87
2019-05-12T08:39:53.206Z,100795.10
2019-05-12T08:42:20.782Z,100800.55
2019-05-12T08:44:51.505Z,100797.65
2019-05-12T08:47:23.885Z,100802.05
2019-05-12T08:49:58.610Z,100802.20
2019-05-12T08:52:30.647Z,100800.94
2019-05-12T08:55:04.329Z,100810.69
2019-05-12T08:57:40.803Z,100812.61
2019-05-12T09:00:08.582Z,100811.60
2019-05-12T09:02:46.111Z,100819.55
2019-05-12T09:05:14.381Z,100823.53
2019-05-12T09:07:46.277Z,100825.66
2019-05-12T09:10:18.178Z,100831.78
2019-05-12T09:12:48.765Z,100834.59
2019-05-12T09:15:19.620Z,100835.76
2019-05-12T09:17:54.634Z,100835.20
2019-05-12T09:20:25.372Z,100833.45
2019-05-12T09:23:00.581Z,100830.02
2019-05-12T09:25:28.512Z,100827.69
2019-05-12T09:27:59.255Z,100827.97
2019-05-12T09:30:33.508Z,100829.50
2019-05-12T09:33:04.285Z,100823.28
2019-05-12T09:35:39.197Z,100823.95
2019-05-12T09:38:11.457Z,100824.92
2019-05-12T09:40:40.199Z,100830.91
2019-05-12T09:43:13.479Z,100830.69
2019-05-12T09:45:52.092Z,100832.55
2019-05-12T09:48:16.165Z,100829.26
2019-05-12T09:50:51.527Z,100824.59
2019-05-12T09:53:19.310Z,100827.39
2019-05-12T09:55:49.794Z,100825.88
2019-05-12T09:58:23.625Z,100822.05
2019-05-12T10:00:54.457Z,100829.43
2019-05-12T10:03:25.197Z,100830.37
2019-05-12T10:05:55.812Z,100831.73
2019-05-12T10:08:29.338Z,100837.27
2019-05-12T10:10:58.935Z,100836.97
2019-05-12T10:13:30.318Z,100834.50
2019-05-12T10:16:07.044Z,100837.22
2019-05-12T10:18:33.798Z,100835.89
2019-05-12T10:21:10.026Z,100839.81
2019-05-12T10:23:37.784Z,100839.35
2019-05-12T10:26:11.529Z,100842.28
2019-05-12T10:28:45.369Z,100843.94
2019-05-12T10:31:13.907Z,100843.05
2019-05-12T10:33:49.054Z,100842.67
2019-05-12T10:36:17.589Z,100844.88
2019-05-12T10:38:48.282Z,100844.08
2019-05-12T10:41:19.068Z,100852.14
2019-05-12T10:43:56.132Z,100841.73
2019-05-12T10:46:26.786Z,100845.19
2019-05-12T10:48:54.353Z,100844.63
2019-05-12T10:51:24.819Z,100846.18
2019-05-12T10:54:07.530Z,100844.66
2019-05-12T10:56:29.121Z,100841.39
2019-05-12T10:59:30.157Z,100853.13
2019-05-12T11:01:54.097Z,100850.00
2019-05-12T11:04:35.629Z,100850.49
2019-05-12T11:06:57.583Z,100858.50
2019-05-12T11:09:31.618Z,100860.94
2019-05-12T11:12:03.234Z,100861.45
2019-05-12T11:14:34.152Z,100862.90
2019-05-12T11:17:09.474Z,100862.66
2019-05-12T11:19:40.849Z,100864.20
2019-05-12T11:22:13.935Z,100868.25
2019-05-12T11:24:44.844Z,100861.38
2019-05-12T11:27:15.671Z,100856.33
2019-05-12T11:29:49.469Z,100856.66
2019-05-12T11:32:18.825Z,100857.67
2019-05-12T11:34:49.564Z,100851.59
2019-05-12T11:37:20.334Z,100856.20
2019-05-12T11:39:53.051Z,100853.62
2019-05-12T11:42:23.887Z,100858.77
2019-05-12T11:44:54.790Z,100857.63
2019-05-12T11:47:26.002Z,100858.03
2019-05-12T11:49:58.532Z,100863.63
2019-05-12T11:52:29.619Z,100858.73
2019-05-12T11:55:00.241Z,100856.20
2019-05-12T11:57:31.222Z,100854.07
2019-05-12T12:00:04.836Z,100863.21
2019-05-12T12:02:34.374Z,100860.17
2019-05-12T12:05:05.408Z,100861.28
2019-05-12T12:07:39.328Z,100858.16
2019-05-12T12:10:08.750Z,100859.70
2019-05-12T12:12:44.191Z,100858.78
2019-05-12T12:15:13.768Z,100860.06
2019-05-12T12:17:44.696Z,100867.05
2019-05-12T12:20:22.549Z,100859.45
2019-05-12T12:22:49.719Z,100854.23
2019-05-12T12:25:24.946Z,100856.61
2019-05-12T12:27:55.485Z,100849.18
2019-05-12T12:30:27.689Z,100859.25
2019-05-12T12:33:00.252Z,100863.03
2019-05-12T12:35:30.869Z,100861.63
2019-05-12T12:38:03.543Z,100865.95
2019-05-12T12:40:34.351Z,100859.95
2019-05-12T12:43:06.272Z,100860.02
2019-05-12T12:46:00.347Z,100861.11
2019-05-12T12:48:33.181Z,100866.05
2019-05-12T12:51:03.986Z,100857.39
2019-05-12T12:53:36.502Z,100852.72
2019-05-12T12:56:07.170Z,100848.23
2019-05-12T12:58:37.875Z,100847.50
2019-05-12T13:01:15.744Z,100851.16
2019-05-12T13:03:43.414Z,100844.73
2019-05-12T13:06:16.907Z,100849.84
2019-05-12T13:08:45.967Z,100842.52
2019-05-12T13:11:29.551Z,100837.93
2019-05-12T13:13:49.258Z,100838.55
2019-05-12T13:16:20.069Z,100839.92
2019-05-12T13:18:50.927Z,100838.17
2019-05-12T13:21:21.648Z,100835.62
2019-05-12T13:23:53.943Z,100835.17
2019-05-12T13:26:25.059Z,100832.36
2019-05-12T13:28:55.641Z,100834.32
2019-05-12T13:31:27.487Z,100831.38
2019-05-12T13:33:58.070Z,100831.31
2019-05-12T13:36:29.354Z,100829.99
2019-05-12T13:39:11.352Z,100831.46
2019-05-12T13:41:39.558Z,100824.00
2019-05-12T13:44:10.241Z,100828.73
2019-05-12T13:46:43.417Z,100819.84
2019-05-12T13:49:14.162Z,100826.06
2019-05-12T13:51:48.354Z,100823.43
2019-05-12T13:54:20.223Z,100827.88
2019-05-12T13:56:49.692Z,100830.74
2019-05-12T13:59:22.579Z,100830.52
2019-05-12T14:01:53.929Z,100835.11
2019-05-12T14:04:27.681Z,100838.88
2019-05-12T14:06:58.447Z,100832.55
2019-05-12T14:09:29.202Z,100840.06
2019-05-12T14:12:00.005Z,100840.41
2019-05-12T14:14:30.755Z,100844.03
2019-05-12T14:17:03.929Z,100843.39
2019-05-12T14:19:35.764Z,100841.44
2019-05-12T14:22:06.127Z,100837.26
2019-05-12T14:24:41.822Z,100839.84
2019-05-12T14:27:09.655Z,100833.94
2019-05-12T14:29:40.323Z,100842.63
2019-05-12T14:32:12.233Z,100840.60
2019-05-12T14:34:43.478Z,100839.84
2019-05-12T14:37:17.359Z,100839.22
2019-05-12T14:39:50.256Z,100835.27
2019-05-12T14:42:19.280Z,100841.17
2019-05-12T14:44:51.309Z,100842.41
2019-05-12T14:47:28.318Z,100850.89
2019-05-12T14:49:55.416Z,100853.68
2019-05-12T14:52:26.083Z,100843.39
2019-05-12T14:54:56.816Z,100853.83
2019-05-12T14:57:29.532Z,100849.05
2019-05-12T15:00:00.268Z,100841.17
2019-05-12T15:02:33.265Z,100849.94
2019-05-12T15:05:06.607Z,100842.83
2019-05-12T15:07:36.262Z,100845.12
2019-05-12T15:10:08.761Z,100845.69
2019-05-12T15:12:39.529Z,100843.95
2019-05-12T15:15:15.514Z,100835.74
2019-05-12T15:17:44.695Z,100839.42
2019-05-12T15:20:15.789Z,100844.23
2019-05-12T15:22:51.840Z,100836.58
2019-05-12T15:25:20.300Z,100840.83
2019-05-12T15:27:51.228Z,100836.69
2019-05-12T15:30:24.417Z,100836.73
2019-05-12T15:32:54.791Z,100839.23
2019-05-12T15:35:25.380Z,100838.44
2019-05-12T15:37:56.247Z,100840.83
2019-05-12T15:40:26.944Z,100836.58
2019-05-12T15:43:00.360Z,100838.10
2019-05-12T15:45:30.077Z,100839.52
2019-05-12T15:48:04.086Z,100845.27
2019-05-12T15:50:34.442Z,100838.38
2019-05-12T15:53:05.192Z,100833.29
2019-05-12T15:55:35.987Z,100839.14
2019-05-12T15:58:07.111Z,100837.20
2019-05-12T16:00:38.433Z,100834.75
2019-05-12T16:03:09.317Z,100835.27
2019-05-12T16:05:39.889Z,100846.86
2019-05-12T16:08:10.492Z,100838.31
2019-05-12T16:10:41.011Z,100840.72
2019-05-12T16:13:15.528Z,100840.86
2019-05-12T16:15:44.338Z,100849.52
2019-05-12T16:18:16.747Z,100846.48
2019-05-12T16:20:47.526Z,100848.38
2019-05-12T16:23:28.323Z,100847.15
2019-05-12T16:25:50.551Z,100845.62
2019-05-12T16:28:25.943Z,100842.53
2019-05-12T16:30:53.715Z,100835.94
2019-05-12T16:33:25.905Z,100844.45
2019-05-12T16:35:59.886Z,100846.20
2019-05-12T16:38:28.904Z,100840.13
2019-05-12T16:40:59.432Z,100845.48
2019-05-12T16:43:35.013Z,100845.23
2019-05-12T16:46:04.400Z,100844.31
2019-05-12T16:48:36.864Z,100844.31
2019-05-12T16:51:07.849Z,100850.56
2019-05-12T16:53:39.719Z,100847.70
2019-05-12T16:56:10.436Z,100847.05
2019-05-12T16:58:43.260Z,100841.43
2019-05-12T17:01:19.450Z,100835.11
2019-05-12T17:03:47.392Z,100840.52
2019-05-12T17:06:20.525Z,100844.17
2019-05-12T17:08:51.387Z,100833.05
2019-05-12T17:11:27.913Z,100843.00
2019-05-12T17:14:01.302Z,100845.04
2019-05-12T17:16:26.994Z,100841.30
2019-05-12T17:19:00.007Z,100844.45
2019-05-12T17:21:29.911Z,100849.59
2019-05-12T17:24:01.069Z,100853.06
2019-05-12T17:26:33.412Z,100855.23
2019-05-12T17:29:04.342Z,100856.58
2019-05-12T17:31:35.267Z,100865.19
2019-05-12T17:34:09.087Z,100858.23
2019-05-12T17:36:38.636Z,100865.33
2019-05-12T17:39:10.853Z,100862.45
2019-05-12T17:41:43.367Z,100860.90
2019-05-12T17:44:14.960Z,100858.97
2019-05-12T17:46:45.685Z,100872.02
2019-05-12T17:49:25.547Z,100862.20
2019-05-12T17:51:53.472Z,100867.09
2019-05-12T17:54:26.554Z,100870.09
2019-05-12T17:56:58.097Z,100875.70
2019-05-12T17:59:29.503Z,100882.27
2019-05-12T18:02:05.753Z,100876.88
2019-05-12T18:04:37.045Z,100882.99
2019-05-12T18:07:12.982Z,100883.64
2019-05-12T18:09:40.025Z,100883.05
2019-05-12T18:12:10.859Z,100881.48
2019-05-12T18:14:49.963Z,100883.65
2019-05-12T18:17:14.524Z,100884.82
2019-05-12T18:19:45.081Z,100887.22
2019-05-12T18:22:15.872Z,100890.31
2019-05-12T18:24:50.600Z,100889.82
2019-05-12T18:27:20.000Z,100889.44
2019-05-12T18:29:53.461Z,100886.70
2019-05-12T18:32:24.374Z,100887.78
2019-05-12T18:34:55.481Z,100893.85
2019-05-12T18:37:26.150Z,100887.48
2019-05-12T18:39:57.158Z,100894.02
2019-05-12T18:42:29.048Z,100894.25
2019-05-12T18:45:04.645Z,100888.18
2019-05-12T18:47:36.365Z,100897.34
2019-05-12T18:50:06.226Z,100893.17
2019-05-12T18:52:43.056Z,100897.69
2019-05-12T18:55:11.006Z,100898.58
2019-05-12T18:57:46.215Z,100899.27
2019-05-12T19:00:21.315Z,100902.63
2019-05-12T19:02:53.845Z,100904.38
2019-05-12T19:05:30.577Z,100902.63
2019-05-12T19:07:56.817Z,100906.66
2019-05-12T19:10:27.588Z,100909.52
2019-05-12T19:13:02.043Z,100913.61
2019-05-12T19:15:33.475Z,100908.58
2019-05-12T19:18:04.503Z,100906.81
2019-05-12T19:20:36.336Z,100904.06
2019-05-12T19:23:07.677Z,100897.61
2019-05-12T19:25:40.856Z,100902.13
2019-05-12T19:28:13.713Z,100907.84
2019-05-12T19:30:45.452Z,100909.62
2019-05-12T19:33:17.417Z,100905.80
2019-05-12T19:35:50.329Z,100907.92
2019-05-12T19:38:20.685Z,100906.38
2019-05-12T19:40:58.739Z,100911.21
2019-05-12T19:43:23.935Z,100903.95
2019-05-12T19:46:03.071Z,100907.16
2019-05-12T19:48:27.758Z,100907.97
2019-05-12T19:50:58.257Z,100909.20
2019-05-12T19:53:29.636Z,100905.14
2019-05-12T19:56:00.154Z,100904.26
2019-05-12T19:58:33.986Z,100917.27
2019-05-12T20:01:04.919Z,100914.42
2019-05-12T20:03:35.759Z,100910.13
2019-05-12T20:06:06.583Z,100907.58
2019-05-12T20:08:37.242Z,100907.39
2019-05-12T20:11:09.227Z,100900.36
2019-05-12T20:13:40.223Z,100903.05
2019-05-12T20:16:11.710Z,100906.38
2019-05-12T20:18:49.004Z,100903.53
2019-05-12T20:21:15.625Z,100893.52
2019-05-12T20:23:46.088Z,100893.75
2019-05-12T20:26:17.027Z,100888.84
2019-05-12T20:28:50.308Z,100884.32
2019-05-12T20:31:24.476Z,100875.13
2019-05-12T20:33:57.514Z,100878.45
2019-05-12T20:36:27.583Z,100871.03
2019-05-12T20:38:59.099Z,100869.56
2019-05-12T20:41:29.811Z,100872.65
2019-05-12T20:44:00.381Z,100875.50
2019-05-12T20:46:30.873Z,100873.88
2019-05-12T20:49:06.534Z,100877.00
2019-05-12T20:51:34.015Z,100869.36
2019-05-12T20:54:05.552Z,100866.52
2019-05-12T20:56:36.570Z,100868.32
2019-05-12T20:59:06.987Z,100863.19
2019-05-12T21:01:37.511Z,100862.41
2019-05-12T21:04:08.030Z,100864.17
2019-05-12T21:06:41.594Z,100859.64
2019-05-12T21:09:10.501Z,100862.69
2019-05-12T21:11:41.124Z,100863.00
2019-05-12T21:14:14.603Z,100856.05
2019-05-12T21:16:45.295Z,100847.55
2019-05-12T21:19:15.598Z,100851.14
2019-05-12T21:21:45.905Z,100844.18
2019-05-12T21:24:16.288Z,100846.07
2019-05-12T21:26:46.579Z,100840.77
2019-05-12T21:29:19.192Z,100841.51
2019-05-12T21:31:48.975Z,100842.31
2019-05-12T21:34:21.594Z,100834.44
2019-05-12T21:36:53.476Z,100833.23
2019-05-12T21:39:24.293Z,100834.50
2019-05-12T21:41:55.033Z,100833.00
2019-05-12T21:44:25.558Z,100828.90
2019-05-12T21:47:03.741Z,100833.30
2019-05-12T21:49:28.016Z,100837.28
2019-05-12T21:52:02.959Z,100838.08
2019-05-12T21:54:37.703Z,100834.37
2019-05-12T21:57:02.600Z,100830.56
2019-05-12T21:59:35.376Z,100828.38
2019-05-12T22:02:05.264Z,100823.52
2019-05-12T22:04:41.174Z,100833.74
2019-05-12T22:07:07.799Z,100829.36
2019-05-12T22:09:41.807Z,100822.69
2019-05-12T22:12:11.033Z,100827.81
2019-05-12T22:14:46.032Z,100826.27
2019-05-12T22:17:13.707Z,100826.27
2019-05-12T22:19:44.435Z,100821.98
2019-05-12T22:22:19.650Z,100817.72
2019-05-12T22:24:46.993Z,100813.73
2019-05-12T22:27:25.800Z,100816.87
2019-05-12T22:29:52.430Z,100818.05
2019-05-12T22:32:25.430Z,100817.09
2019-05-12T22:34:55.967Z,100818.80
2019-05-12T22:37:29.271Z,100820.73
2019-05-12T22:39:58.473Z,100821.25
2019-05-12T22:42:28.956Z,100821.53
2019-05-12T22:45:01.365Z,100826.83
2019-05-12T22:47:33.470Z,100824.02
2019-05-12T22:50:04.518Z,100821.70
2019-05-12T22:52:38.989Z,100820.52
2019-05-12T22:55:07.246Z,100824.72
2019-05-12T22:57:40.145Z,100818.84
2019-05-12T23:00:13.607Z,100825.95
2019-05-12T23:02:44.650Z,100824.02
2019-05-12T23:05:16.955Z,100824.31
2019-05-12T23:07:47.296Z,100829.92
2019-05-12T23:10:17.709Z,100827.13
2019-05-12T23:12:50.165Z,100830.72
2019-05-12T23:15:21.124Z,100833.81
2019-05-12T23:17:53.184Z,100830.37
2019-05-12T23:20:25.342Z,100833.92
2019-05-12T23:22:55.798Z,100832.88
2019-05-12T23:25:26.094Z,100833.70
2019-05-12T23:28:00.389Z,100831.06
2019-05-12T23:30:28.609Z,100835.91
2019-05-12T23:32:58.890Z,100837.22
2019-05-12T23:35:34.836Z,100838.64
2019-05-12T23:38:04.169Z,100836.84
2019-05-12T23:40:34.423Z,100841.95
2019-05-12T23:43:05.168Z,100839.55
2019-05-12T23:45:35.606Z,100836.81
2019-05-12T23:48:05.952Z,100836.84
2019-05-12T23:50:36.446Z,100829.46
2019-05-12T23:53:06.883Z,100827.41
2019-05-12T23:55:37.170Z,100827.14
2019-05-12T23:58:07.553Z,100825.98
